Buoy 62910

sailwx.info

Track history (hours):
 
Tides and Currents Weather Stations Pressure Air Temp Water Temp Dewpoint Dewpoint Depression Visibility Wind Speed Wind Dir Waves Ship Positions

Drifting buoy 62910

Last reported at 2015-Sep-01 02:41 UTC. Time now 2015-Sep-01 03:55 UTC.
Position N 42°31' E 010°02'.

Water temperature 26.6 ° C

Date/timePositionNaut miles runAvg speedWind from/ knotsBaromVisibWave heightAir tempDewpointWater temp
2015-Sep-01 02:41N 42°31' E 010°02'0 0.4 26.6
2015-Sep-01 02:11N 42°31' E 010°02'0 1.6 26.6
2015-Sep-01 02:07N 42°31' E 010°02'0 2.5 26.6
2015-Sep-01 01:59N 42°31' E 010°01'1 0.3 26.6
2015-Aug-31 21:42N 42°31' E 009°60'1 0.8 26.7
2015-Aug-31 21:00N 42°31' E 009°59'0 1.5 26.7
2015-Aug-31 20:51N 42°31' E 009°59'0 0.3 26.7
2015-Aug-31 19:53N 42°31' E 009°58'0 0.5 26.8
2015-Aug-31 19:09N 42°31' E 009°58'0 0.1 26.9
2015-Aug-31 18:05N 42°31' E 009°58'1 0.7 27.0
2015-Aug-31 17:03N 42°31' E 009°57'0 2.7 27.0
2015-Aug-31 16:56N 42°31' E 009°57'0 0.0 27.0
2015-Aug-31 16:07N 42°31' E 009°57'1 0.2 27.1
2015-Aug-31 11:58N 42°32' E 009°56'0 0.1 27.0
2015-Aug-31 11:12N 42°32' E 009°56'0 2.7 26.9
2015-Aug-31 11:08N 42°32' E 009°56'1 0.2 26.9
2015-Aug-31 07:54N 42°33' E 009°56'1 8.0 26.5
2015-Aug-31 07:47N 42°33' E 009°55'0 0.3 26.5
2015-Aug-31 06:17N 42°34' E 009°55'0 1.3 26.4
2015-Aug-31 06:10N 42°34' E 009°55'0 0.0 26.4
2015-Aug-31 05:02N 42°34' E 009°55'0 0.6 26.4
2015-Aug-31 04:48N 42°34' E 009°55'0 0.3 26.4
2015-Aug-31 03:55N 42°34' E 009°55'0 0.3 26.4
2015-Aug-31 03:11N 42°34' E 009°55'0 1.6 26.4
2015-Aug-31 02:52N 42°34' E 009°55'1 0.2 26.4
2015-Aug-30 21:57N 42°36' E 009°55'0 0.4 26.6
2015-Aug-30 21:11N 42°36' E 009°55'1 0.4 26.6
2015-Aug-30 18:44N 42°37' E 009°55'0 0.4 26.7
2015-Aug-30 17:53N 42°37' E 009°54'1 0.5 26.8
2015-Aug-30 16:53N 42°37' E 009°54'0 0.4 26.8
2015-Aug-30 16:10N 42°38' E 009°54'1 0.5 26.9
2015-Aug-30 15:10N 42°38' E 009°53'0 0.4 26.9
2015-Aug-30 14:01N 42°38' E 009°53'0 0.0 26.9
2015-Aug-30 13:56N 42°38' E 009°53'1 0.6 26.9
2015-Aug-30 12:10N 42°38' E 009°51'0 0.1 26.8
2015-Aug-30 09:56N 42°38' E 009°51'0 0.5 26.5
2015-Aug-30 09:49N 42°38' E 009°51'0 0.0 26.5
2015-Aug-30 08:59N 42°38' E 009°51'0 0.3 26.4
2015-Aug-30 08:10N 42°38' E 009°51'0 0.5 26.3
2015-Aug-30 07:15N 42°38' E 009°50'0 0.4 26.3
2015-Aug-30 07:05N 42°38' E 009°50'0 0.0 26.3
2015-Aug-30 07:01N 42°38' E 009°50'1 0.2 26.3
2015-Aug-30 04:10N 42°39' E 009°49'0 1.8 26.4
2015-Aug-30 04:04N 42°39' E 009°49'0 0.1 26.4
2015-Aug-30 03:03N 42°39' E 009°49'1 0.3 26.4
2015-Aug-30 00:52N 42°39' E 009°48'2 0.4 26.5
2015-Aug-29 20:46N 42°40' E 009°46'1 0.6 26.5
2015-Aug-29 19:50N 42°40' E 009°45'1 0.7 26.6
2015-Aug-29 19:02N 42°39' E 009°45'0 6.0 26.6
2015-Aug-29 18:57N 42°39' E 009°45'1 0.8 26.6
2015-Aug-29 18:05N 42°39' E 009°44'1 0.7 26.6
2015-Aug-29 17:14N 42°39' E 009°43'1 0.4 26.7
2015-Aug-29 14:07N 42°38' E 009°42'1 4.3 26.9
2015-Aug-29 13:55N 42°37' E 009°42'1 0.2 26.9
2015-Aug-29 11:01N 42°36' E 009°42'1 0.6 26.8
2015-Aug-29 10:08N 42°36' E 009°42'1 0.3 26.7
2015-Aug-29 04:59N 42°35' E 009°40'0 0.0 26.4
2015-Aug-29 04:56N 42°35' E 009°40'0 1.8 26.4
2015-Aug-29 04:50N 42°35' E 009°40'0 0.0 26.4
2015-Aug-29 04:20N 42°35' E 009°40'0 2.1 26.4
2015-Aug-29 04:13N 42°34' E 009°40'0 7.5 26.4
2015-Aug-29 04:10N 42°34' E 009°40'0 0.0 26.4
2015-Aug-29 03:19N 42°34' E 009°40'0 2.3 26.5
2015-Aug-29 03:12N 42°34' E 009°40'2 0.8 26.5
2015-Aug-29 00:57N 42°33' E 009°38'0 0.0 26.7
2015-Aug-28 22:01N 42°33' E 009°38'1 9.7 26.9
2015-Aug-28 21:57N 42°32' E 009°38'0 0.5 26.9
2015-Aug-28 20:57N 42°32' E 009°37'2 0.6 26.9
2015-Aug-28 17:43N 42°30' E 009°37'1 0.9 27.0
2015-Aug-28 16:59N 42°29' E 009°36'0 0.3 27.2
2015-Aug-28 16:51N 42°29' E 009°36'2 0.9 27.2
2015-Aug-28 15:00N 42°28' E 009°36'0 0.0 27.3
2015-Aug-28 14:53N 42°28' E 009°36'3 0.8 27.3
2015-Aug-28 10:56N 42°24' E 009°36'1 0.4 26.9
2015-Aug-28 08:53N 42°24' E 009°37'0 0.3 26.3
2015-Aug-28 07:58N 42°24' E 009°36'110.0 26.2
2015-Aug-28 07:54N 42°23' E 009°37'0 0.2
2015-Aug-28 06:17N 42°23' E 009°37'0 0.2 26.2
2015-Aug-28 05:10N 42°23' E 009°37'0 2.6 26.2
2015-Aug-28 05:01N 42°22' E 009°36'0 0.0 26.2
2015-Aug-28 04:44N 42°22' E 009°36'0 1.2 26.3
2015-Aug-28 04:35N 42°22' E 009°36'0 0.0 26.3
2015-Aug-28 04:29N 42°22' E 009°36'0 0.1 26.3
2015-Aug-28 03:28N 42°22' E 009°36'0 0.3 26.4
2015-Aug-28 03:06N 42°22' E 009°36'0 0.4 26.4
2015-Aug-28 02:52N 42°22' E 009°36'1 7.4 26.4
2015-Aug-28 02:47N 42°21' E 009°36'0 0.0 26.4
2015-Aug-28 01:12N 42°21' E 009°36'1 0.5 26.6
2015-Aug-27 22:17N 42°20' E 009°36'0 0.1 26.9
2015-Aug-27 21:17N 42°20' E 009°36'0 0.3
2015-Aug-27 19:48N 42°19' E 009°36'0 0.4 27.2
2015-Aug-27 19:08N 42°19' E 009°37'0 1.0 27.3
2015-Aug-27 19:01N 42°19' E 009°37'1 4.6 27.3
2015-Aug-27 18:54N 42°19' E 009°37'0 0.4 27.3
2015-Aug-27 18:02N 42°19' E 009°37'1 0.5 27.4
2015-Aug-27 16:52N 42°19' E 009°38'0 0.3 27.7
2015-Aug-27 15:11N 42°19' E 009°38'0 2.5 27.9
2015-Aug-27 15:04N 42°19' E 009°39'1 0.4 27.9
2015-Aug-27 12:53N 42°19' E 009°40'1 0.7 27.7
2015-Aug-27 11:12N 42°19' E 009°41'0 1.8 27.3
2015-Aug-27 11:05N 42°19' E 009°41'0 0.0 27.3
2015-Aug-27 10:55N 42°19' E 009°41'1 8.8 27.0
2015-Aug-27 10:51N 42°20' E 009°42'0 0.0 27.0
2015-Aug-27 10:04N 42°20' E 009°42'111.6 26.5
2015-Aug-27 10:00N 42°20' E 009°43'0 0.0
2015-Aug-27 09:14N 42°20' E 009°43'010.0
2015-Aug-27 09:11N 42°20' E 009°43'1 0.4 26.0
2015-Aug-27 07:02N 42°21' E 009°44'1 0.4 25.9
2015-Aug-27 05:03N 42°21' E 009°45'2 1.0 25.9
2015-Aug-27 03:03N 42°23' E 009°46'2 0.4 26.0
2015-Aug-26 21:49N 42°24' E 009°48'1 1.0 26.1
2015-Aug-26 21:03N 42°25' E 009°49'1 6.5 26.1
2015-Aug-26 20:52N 42°26' E 009°50'0 0.3 26.2
2015-Aug-26 19:59N 42°26' E 009°50'2 1.0 26.2
2015-Aug-26 17:57N 42°28' E 009°52'0 0.1 26.3
2015-Aug-26 17:04N 42°28' E 009°52'0 1.0 26.4
2015-Aug-26 16:50N 42°28' E 009°52'1 0.9 26.4
2015-Aug-26 15:15N 42°29' E 009°52'0 3.8
2015-Aug-26 15:11N 42°29' E 009°52'0 2.0 26.5
2015-Aug-26 15:02N 42°30' E 009°52'0 0.0 26.5
2015-Aug-26 14:45N 42°30' E 009°52'2 0.9 26.5
2015-Aug-26 13:04N 42°31' E 009°53'0 0.0 26.5
2015-Aug-26 12:59N 42°31' E 009°53'135.4 26.4
2015-Aug-26 12:57N 42°32' E 009°53'2 0.4 26.4
2015-Aug-26 07:07N 42°34' E 009°53'0 0.4 26.2
2015-Aug-26 05:46N 42°35' E 009°53'1 1.2 26.2
2015-Aug-26 04:51N 42°36' E 009°53'0 0.0 26.2
2015-Aug-26 04:09N 42°36' E 009°53'0 1.0 26.2
2015-Aug-26 03:54N 42°36' E 009°53'0 0.4 26.2
2015-Aug-26 03:16N 42°36' E 009°53'1 8.5 26.3
2015-Aug-26 03:09N 42°37' E 009°52'0 0.0 26.2
2015-Aug-26 02:28N 42°37' E 009°52'2 0.5 4.2
2015-Aug-25 22:03N 42°39' E 009°50'0 0.3 26.2
2015-Aug-25 20:29N 42°39' E 009°50'1 3.8 26.3
2015-Aug-25 20:20N 42°39' E 009°49'0 0.0 26.3
2015-Aug-25 20:03N 42°39' E 009°49'1 0.7 26.3
2015-Aug-25 18:47N 42°40' E 009°48'1 0.4 26.3
2015-Aug-25 17:15N 42°40' E 009°47'0 0.8 26.3
2015-Aug-25 16:52N 42°40' E 009°47'1 0.5 26.4
2015-Aug-25 14:55N 42°39' E 009°45'0 0.1 26.6
2015-Aug-25 13:15N 42°39' E 009°45'0 0.1 26.5
2015-Aug-25 11:32N 42°39' E 009°45'010.0 26.4
2015-Aug-25 11:29N 42°39' E 009°45'1 0.5
2015-Aug-25 09:59N 42°39' E 009°44'0 0.1 26.3
2015-Aug-25 09:04N 42°39' E 009°44'2 1.7 26.3
2015-Aug-25 08:11N 42°39' E 009°41'1 0.3 26.2
2015-Aug-25 06:21N 42°39' E 009°42'0 0.0 26.2
2015-Aug-25 05:51N 42°39' E 009°42'1 0.7 26.2
2015-Aug-25 04:34N 42°38' E 009°41'0 0.0 26.3
2015-Aug-25 04:11N 42°38' E 009°41'0 0.9 26.3
2015-Aug-25 04:05N 42°38' E 009°41'0 1.5 26.3
2015-Aug-25 04:02N 42°38' E 009°41'0 0.3 26.3
2015-Aug-25 03:26N 42°38' E 009°40'110.5 26.3
2015-Aug-25 03:21N 42°38' E 009°40'1 2.5 26.3
2015-Aug-25 03:00N 42°38' E 009°40'1 0.7 26.3
2015-Aug-25 01:49N 42°38' E 009°40'0 1.5 26.3
2015-Aug-25 01:46N 42°38' E 009°40'1 5.8 26.3
2015-Aug-25 01:37N 42°37' E 009°40'1 0.6 26.3
2015-Aug-25 00:01N 42°36' E 009°39'1 0.3 26.4
2015-Aug-24 20:45N 42°35' E 009°39'1 0.9 26.4
2015-Aug-24 20:06N 42°35' E 009°39'0 2.2 26.4
2015-Aug-24 19:54N 42°34' E 009°38'1 0.9 26.4
2015-Aug-24 18:59N 42°33' E 009°38'1 0.3 26.4
2015-Aug-24 16:01N 42°32' E 009°38'0 0.5 26.5
2015-Aug-24 15:06N 42°32' E 009°38'0 0.2 26.6
2015-Aug-24 14:15N 42°32' E 009°38'1 4.4 26.6
2015-Aug-24 13:59N 42°31' E 009°39'1 0.3 26.6
2015-Aug-24 11:04N 42°30' E 009°39'1 1.2 26.5
2015-Aug-24 10:11N 42°29' E 009°39'2 0.7 26.4
2015-Aug-24 06:48N 42°27' E 009°38'0 0.1 26.2
2015-Aug-24 06:16N 42°27' E 009°38'0 0.7 26.2
2015-Aug-24 05:55N 42°27' E 009°38'0 5.8 26.0
2015-Aug-24 05:50N 42°26' E 009°38'0 0.0 26.0
2015-Aug-24 05:09N 42°26' E 009°38'1 1.0 26.0
2015-Aug-24 04:16N 42°25' E 009°38'0 0.7 26.0
2015-Aug-24 04:12N 42°25' E 009°38'2 0.9 26.1
2015-Aug-24 01:56N 42°23' E 009°39'123.2 26.1
2015-Aug-24 01:53N 42°22' E 009°39'0 0.0 26.1
2015-Aug-24 00:12N 42°22' E 009°39'3 1.3 26.2
2015-Aug-23 21:58N 42°20' E 009°40'1 0.6 26.2
2015-Aug-23 21:01N 42°19' E 009°40'1 0.5 26.3
2015-Aug-23 18:05N 42°18' E 009°41'0 4.1 26.3
2015-Aug-23 18:01N 42°18' E 009°41'2 0.8 26.3
2015-Aug-23 15:56N 42°16' E 009°42'0 2.2 26.5
2015-Aug-23 15:52N 42°16' E 009°41'1 0.9 26.5
2015-Aug-23 14:10N 42°15' E 009°42'3 0.6 26.6
2015-Aug-23 09:02N 42°12' E 009°43'0 0.0 26.5
2015-Aug-23 08:57N 42°12' E 009°43'113.4
2015-Aug-23 08:54N 42°11' E 009°44'0 0.5 26.4
2015-Aug-23 07:59N 42°11' E 009°44'0 0.2 26.4
2015-Aug-23 06:08N 42°10' E 009°43'1 1.0 26.4
2015-Aug-23 05:00N 42°09' E 009°44'0 0.2 26.4
2015-Aug-23 04:00N 42°09' E 009°44'3 0.4 26.4
2015-Aug-22 20:02N 42°07' E 009°45'0 0.0 26.6
2015-Aug-22 19:51N 42°07' E 009°45'0 0.3 26.7
2015-Aug-22 19:03N 42°06' E 009°44'1 4.7 26.7
2015-Aug-22 18:56N 42°06' E 009°45'0 0.2 26.7
2015-Aug-22 16:45N 42°06' E 009°45'1 1.2 26.9
2015-Aug-22 16:05N 42°05' E 009°45'0 0.0 26.9
2015-Aug-22 16:00N 42°05' E 009°45'0 0.0 26.9
2015-Aug-22 15:01N 42°05' E 009°45'1 0.3 27.0
2015-Aug-22 12:03N 42°04' E 009°45'0 0.4 26.7
2015-Aug-22 11:01N 42°04' E 009°46'0 2.8 26.6
2015-Aug-22 10:54N 42°04' E 009°46'0 0.0 26.6
2015-Aug-22 10:06N 42°04' E 009°46'0 0.5 26.4
2015-Aug-22 09:11N 42°04' E 009°47'0 0.2 26.4
2015-Aug-22 07:08N 42°04' E 009°47'0 4.9 26.3
2015-Aug-22 07:02N 42°04' E 009°48'0 0.6 26.3
2015-Aug-22 06:13N 42°04' E 009°48'0 0.1 26.3
2015-Aug-22 03:59N 42°04' E 009°48'1 0.9
2015-Aug-22 02:52N 42°04' E 009°50'   26.1
Track history (hours):
 
Tides and Currents Weather Stations Pressure Air Temp Water Temp Dewpoint Dewpoint Depression Visibility Wind Speed Wind Dir Waves Ship Positions

Drifting buoy 62910

Last reported at 2015-Sep-01 02:41 UTC. Time now 2015-Sep-01 03:55 UTC.
Position N 42°31' E 010°02'.

Water temperature 26.6 ° C

Date/timePositionNaut miles runAvg speedWind from/ knotsBaromVisibWave heightAir tempDewpointWater temp
2015-Sep-01 02:41N 42°31' E 010°02'0 0.4 26.6
2015-Sep-01 02:11N 42°31' E 010°02'0 1.6 26.6
2015-Sep-01 02:07N 42°31' E 010°02'0 2.5 26.6
2015-Sep-01 01:59N 42°31' E 010°01'1 0.3 26.6
2015-Aug-31 21:42N 42°31' E 009°60'1 0.8 26.7
2015-Aug-31 21:00N 42°31' E 009°59'0 1.5 26.7
2015-Aug-31 20:51N 42°31' E 009°59'0 0.3 26.7
2015-Aug-31 19:53N 42°31' E 009°58'0 0.5 26.8
2015-Aug-31 19:09N 42°31' E 009°58'0 0.1 26.9
2015-Aug-31 18:05N 42°31' E 009°58'1 0.7 27.0
2015-Aug-31 17:03N 42°31' E 009°57'0 2.7 27.0
2015-Aug-31 16:56N 42°31' E 009°57'0 0.0 27.0
2015-Aug-31 16:07N 42°31' E 009°57'1 0.2 27.1
2015-Aug-31 11:58N 42°32' E 009°56'0 0.1 27.0
2015-Aug-31 11:12N 42°32' E 009°56'0 2.7 26.9
2015-Aug-31 11:08N 42°32' E 009°56'1 0.2 26.9
2015-Aug-31 07:54N 42°33' E 009°56'1 8.0 26.5
2015-Aug-31 07:47N 42°33' E 009°55'0 0.3 26.5
2015-Aug-31 06:17N 42°34' E 009°55'0 1.3 26.4
2015-Aug-31 06:10N 42°34' E 009°55'0 0.0 26.4
2015-Aug-31 05:02N 42°34' E 009°55'0 0.6 26.4
2015-Aug-31 04:48N 42°34' E 009°55'0 0.3 26.4
2015-Aug-31 03:55N 42°34' E 009°55'0 0.3 26.4
2015-Aug-31 03:11N 42°34' E 009°55'0 1.6 26.4
2015-Aug-31 02:52N 42°34' E 009°55'1 0.2 26.4
2015-Aug-30 21:57N 42°36' E 009°55'0 0.4 26.6
2015-Aug-30 21:11N 42°36' E 009°55'1 0.4 26.6
2015-Aug-30 18:44N 42°37' E 009°55'0 0.4 26.7
2015-Aug-30 17:53N 42°37' E 009°54'1 0.5 26.8
2015-Aug-30 16:53N 42°37' E 009°54'0 0.4 26.8
2015-Aug-30 16:10N 42°38' E 009°54'1 0.5 26.9
2015-Aug-30 15:10N 42°38' E 009°53'0 0.4 26.9
2015-Aug-30 14:01N 42°38' E 009°53'0 0.0 26.9
2015-Aug-30 13:56N 42°38' E 009°53'1 0.6 26.9
2015-Aug-30 12:10N 42°38' E 009°51'0 0.1 26.8
2015-Aug-30 09:56N 42°38' E 009°51'0 0.5 26.5
2015-Aug-30 09:49N 42°38' E 009°51'0 0.0 26.5
2015-Aug-30 08:59N 42°38' E 009°51'0 0.3 26.4
2015-Aug-30 08:10N 42°38' E 009°51'0 0.5 26.3
2015-Aug-30 07:15N 42°38' E 009°50'0 0.4 26.3
2015-Aug-30 07:05N 42°38' E 009°50'0 0.0 26.3
2015-Aug-30 07:01N 42°38' E 009°50'1 0.2 26.3
2015-Aug-30 04:10N 42°39' E 009°49'0 1.8 26.4
2015-Aug-30 04:04N 42°39' E 009°49'0 0.1 26.4
2015-Aug-30 03:03N 42°39' E 009°49'1 0.3 26.4
2015-Aug-30 00:52N 42°39' E 009°48'2 0.4 26.5
2015-Aug-29 20:46N 42°40' E 009°46'1 0.6 26.5
2015-Aug-29 19:50N 42°40' E 009°45'1 0.7 26.6
2015-Aug-29 19:02N 42°39' E 009°45'0 6.0 26.6
2015-Aug-29 18:57N 42°39' E 009°45'1 0.8 26.6
2015-Aug-29 18:05N 42°39' E 009°44'1 0.7 26.6
2015-Aug-29 17:14N 42°39' E 009°43'1 0.4 26.7
2015-Aug-29 14:07N 42°38' E 009°42'1 4.3 26.9
2015-Aug-29 13:55N 42°37' E 009°42'1 0.2 26.9
2015-Aug-29 11:01N 42°36' E 009°42'1 0.6 26.8
2015-Aug-29 10:08N 42°36' E 009°42'1 0.3 26.7
2015-Aug-29 04:59N 42°35' E 009°40'0 0.0 26.4
2015-Aug-29 04:56N 42°35' E 009°40'0 1.8 26.4
2015-Aug-29 04:50N 42°35' E 009°40'0 0.0 26.4
2015-Aug-29 04:20N 42°35' E 009°40'0 2.1 26.4
2015-Aug-29 04:13N 42°34' E 009°40'0 7.5 26.4
2015-Aug-29 04:10N 42°34' E 009°40'0 0.0 26.4
2015-Aug-29 03:19N 42°34' E 009°40'0 2.3 26.5
2015-Aug-29 03:12N 42°34' E 009°40'2 0.8 26.5
2015-Aug-29 00:57N 42°33' E 009°38'0 0.0 26.7
2015-Aug-28 22:01N 42°33' E 009°38'1 9.7 26.9
2015-Aug-28 21:57N 42°32' E 009°38'0 0.5 26.9
2015-Aug-28 20:57N 42°32' E 009°37'2 0.6 26.9
2015-Aug-28 17:43N 42°30' E 009°37'1 0.9 27.0
2015-Aug-28 16:59N 42°29' E 009°36'0 0.3 27.2
2015-Aug-28 16:51N 42°29' E 009°36'2 0.9 27.2
2015-Aug-28 15:00N 42°28' E 009°36'0 0.0 27.3
2015-Aug-28 14:53N 42°28' E 009°36'3 0.8 27.3
2015-Aug-28 10:56N 42°24' E 009°36'1 0.4 26.9
2015-Aug-28 08:53N 42°24' E 009°37'0 0.3 26.3
2015-Aug-28 07:58N 42°24' E 009°36'110.0 26.2
2015-Aug-28 07:54N 42°23' E 009°37'0 0.2
2015-Aug-28 06:17N 42°23' E 009°37'0 0.2 26.2
2015-Aug-28 05:10N 42°23' E 009°37'0 2.6 26.2
2015-Aug-28 05:01N 42°22' E 009°36'0 0.0 26.2
2015-Aug-28 04:44N 42°22' E 009°36'0 1.2 26.3
2015-Aug-28 04:35N 42°22' E 009°36'0 0.0 26.3
2015-Aug-28 04:29N 42°22' E 009°36'0 0.1 26.3
2015-Aug-28 03:28N 42°22' E 009°36'0 0.3 26.4
2015-Aug-28 03:06N 42°22' E 009°36'0 0.4 26.4
2015-Aug-28 02:52N 42°22' E 009°36'1 7.4 26.4
2015-Aug-28 02:47N 42°21' E 009°36'0 0.0 26.4
2015-Aug-28 01:12N 42°21' E 009°36'1 0.5 26.6
2015-Aug-27 22:17N 42°20' E 009°36'0 0.1 26.9
2015-Aug-27 21:17N 42°20' E 009°36'0 0.3
2015-Aug-27 19:48N 42°19' E 009°36'0 0.4 27.2
2015-Aug-27 19:08N 42°19' E 009°37'0 1.0 27.3
2015-Aug-27 19:01N 42°19' E 009°37'1 4.6 27.3
2015-Aug-27 18:54N 42°19' E 009°37'0 0.4 27.3
2015-Aug-27 18:02N 42°19' E 009°37'1 0.5 27.4
2015-Aug-27 16:52N 42°19' E 009°38'0 0.3 27.7
2015-Aug-27 15:11N 42°19' E 009°38'0 2.5 27.9
2015-Aug-27 15:04N 42°19' E 009°39'1 0.4 27.9
2015-Aug-27 12:53N 42°19' E 009°40'1 0.7 27.7
2015-Aug-27 11:12N 42°19' E 009°41'0 1.8 27.3
2015-Aug-27 11:05N 42°19' E 009°41'0 0.0 27.3
2015-Aug-27 10:55N 42°19' E 009°41'1 8.8 27.0
2015-Aug-27 10:51N 42°20' E 009°42'0 0.0 27.0
2015-Aug-27 10:04N 42°20' E 009°42'111.6 26.5
2015-Aug-27 10:00N 42°20' E 009°43'0 0.0
2015-Aug-27 09:14N 42°20' E 009°43'010.0
2015-Aug-27 09:11N 42°20' E 009°43'1 0.4 26.0
2015-Aug-27 07:02N 42°21' E 009°44'1 0.4 25.9
2015-Aug-27 05:03N 42°21' E 009°45'2 1.0 25.9
2015-Aug-27 03:03N 42°23' E 009°46'2 0.4 26.0
2015-Aug-26 21:49N 42°24' E 009°48'1 1.0 26.1
2015-Aug-26 21:03N 42°25' E 009°49'1 6.5 26.1
2015-Aug-26 20:52N 42°26' E 009°50'0 0.3 26.2
2015-Aug-26 19:59N 42°26' E 009°50'2 1.0 26.2
2015-Aug-26 17:57N 42°28' E 009°52'0 0.1 26.3
2015-Aug-26 17:04N 42°28' E 009°52'0 1.0 26.4
2015-Aug-26 16:50N 42°28' E 009°52'1 0.9 26.4
2015-Aug-26 15:15N 42°29' E 009°52'0 3.8
2015-Aug-26 15:11N 42°29' E 009°52'0 2.0 26.5
2015-Aug-26 15:02N 42°30' E 009°52'0 0.0 26.5
2015-Aug-26 14:45N 42°30' E 009°52'2 0.9 26.5
2015-Aug-26 13:04N 42°31' E 009°53'0 0.0 26.5
2015-Aug-26 12:59N 42°31' E 009°53'135.4 26.4
2015-Aug-26 12:57N 42°32' E 009°53'2 0.4 26.4
2015-Aug-26 07:07N 42°34' E 009°53'0 0.4 26.2
2015-Aug-26 05:46N 42°35' E 009°53'1 1.2 26.2
2015-Aug-26 04:51N 42°36' E 009°53'0 0.0 26.2
2015-Aug-26 04:09N 42°36' E 009°53'0 1.0 26.2
2015-Aug-26 03:54N 42°36' E 009°53'0 0.4 26.2
2015-Aug-26 03:16N 42°36' E 009°53'1 8.5 26.3
2015-Aug-26 03:09N 42°37' E 009°52'0 0.0 26.2
2015-Aug-26 02:28N 42°37' E 009°52'2 0.5 4.2
2015-Aug-25 22:03N 42°39' E 009°50'0 0.3 26.2
2015-Aug-25 20:29N 42°39' E 009°50'1 3.8 26.3
2015-Aug-25 20:20N 42°39' E 009°49'0 0.0 26.3
2015-Aug-25 20:03N 42°39' E 009°49'1 0.7 26.3
2015-Aug-25 18:47N 42°40' E 009°48'1 0.4 26.3
2015-Aug-25 17:15N 42°40' E 009°47'0 0.8 26.3
2015-Aug-25 16:52N 42°40' E 009°47'1 0.5 26.4
2015-Aug-25 14:55N 42°39' E 009°45'0 0.1 26.6
2015-Aug-25 13:15N 42°39' E 009°45'0 0.1 26.5
2015-Aug-25 11:32N 42°39' E 009°45'010.0 26.4
2015-Aug-25 11:29N 42°39' E 009°45'1 0.5
2015-Aug-25 09:59N 42°39' E 009°44'0 0.1 26.3
2015-Aug-25 09:04N 42°39' E 009°44'2 1.7 26.3
2015-Aug-25 08:11N 42°39' E 009°41'1 0.3 26.2
2015-Aug-25 06:21N 42°39' E 009°42'0 0.0 26.2
2015-Aug-25 05:51N 42°39' E 009°42'1 0.7 26.2
2015-Aug-25 04:34N 42°38' E 009°41'0 0.0 26.3
2015-Aug-25 04:11N 42°38' E 009°41'0 0.9 26.3
2015-Aug-25 04:05N 42°38' E 009°41'0 1.5 26.3
2015-Aug-25 04:02N 42°38' E 009°41'0 0.3 26.3
2015-Aug-25 03:26N 42°38' E 009°40'110.5 26.3
2015-Aug-25 03:21N 42°38' E 009°40'1 2.5 26.3
2015-Aug-25 03:00N 42°38' E 009°40'1 0.7 26.3
2015-Aug-25 01:49N 42°38' E 009°40'0 1.5 26.3
2015-Aug-25 01:46N 42°38' E 009°40'1 5.8 26.3
2015-Aug-25 01:37N 42°37' E 009°40'1 0.6 26.3
2015-Aug-25 00:01N 42°36' E 009°39'1 0.3 26.4
2015-Aug-24 20:45N 42°35' E 009°39'1 0.9 26.4
2015-Aug-24 20:06N 42°35' E 009°39'0 2.2 26.4
2015-Aug-24 19:54N 42°34' E 009°38'1 0.9 26.4
2015-Aug-24 18:59N 42°33' E 009°38'1 0.3 26.4
2015-Aug-24 16:01N 42°32' E 009°38'0 0.5 26.5
2015-Aug-24 15:06N 42°32' E 009°38'0 0.2 26.6
2015-Aug-24 14:15N 42°32' E 009°38'1 4.4 26.6
2015-Aug-24 13:59N 42°31' E 009°39'1 0.3 26.6
2015-Aug-24 11:04N 42°30' E 009°39'1 1.2 26.5
2015-Aug-24 10:11N 42°29' E 009°39'2 0.7 26.4
2015-Aug-24 06:48N 42°27' E 009°38'0 0.1 26.2
2015-Aug-24 06:16N 42°27' E 009°38'0 0.7 26.2
2015-Aug-24 05:55N 42°27' E 009°38'0 5.8 26.0
2015-Aug-24 05:50N 42°26' E 009°38'0 0.0 26.0
2015-Aug-24 05:09N 42°26' E 009°38'1 1.0 26.0
2015-Aug-24 04:16N 42°25' E 009°38'0 0.7 26.0
2015-Aug-24 04:12N 42°25' E 009°38'2 0.9 26.1
2015-Aug-24 01:56N 42°23' E 009°39'123.2 26.1
2015-Aug-24 01:53N 42°22' E 009°39'0 0.0 26.1
2015-Aug-24 00:12N 42°22' E 009°39'3 1.3 26.2
2015-Aug-23 21:58N 42°20' E 009°40'1 0.6 26.2
2015-Aug-23 21:01N 42°19' E 009°40'1 0.5 26.3
2015-Aug-23 18:05N 42°18' E 009°41'0 4.1 26.3
2015-Aug-23 18:01N 42°18' E 009°41'2 0.8 26.3
2015-Aug-23 15:56N 42°16' E 009°42'0 2.2 26.5
2015-Aug-23 15:52N 42°16' E 009°41'1 0.9 26.5
2015-Aug-23 14:10N 42°15' E 009°42'3 0.6 26.6
2015-Aug-23 09:02N 42°12' E 009°43'0 0.0 26.5
2015-Aug-23 08:57N 42°12' E 009°43'113.4
2015-Aug-23 08:54N 42°11' E 009°44'0 0.5 26.4
2015-Aug-23 07:59N 42°11' E 009°44'0 0.2 26.4
2015-Aug-23 06:08N 42°10' E 009°43'1 1.0 26.4
2015-Aug-23 05:00N 42°09' E 009°44'0 0.2 26.4
2015-Aug-23 04:00N 42°09' E 009°44'3 0.4 26.4
2015-Aug-22 20:02N 42°07' E 009°45'0 0.0 26.6
2015-Aug-22 19:51N 42°07' E 009°45'0 0.3 26.7
2015-Aug-22 19:03N 42°06' E 009°44'1 4.7 26.7
2015-Aug-22 18:56N 42°06' E 009°45'0 0.2 26.7
2015-Aug-22 16:45N 42°06' E 009°45'1 1.2 26.9
2015-Aug-22 16:05N 42°05' E 009°45'0 0.0 26.9
2015-Aug-22 16:00N 42°05' E 009°45'0 0.0 26.9
2015-Aug-22 15:01N 42°05' E 009°45'1 0.3 27.0
2015-Aug-22 12:03N 42°04' E 009°45'0 0.4 26.7
2015-Aug-22 11:01N 42°04' E 009°46'0 2.8 26.6
2015-Aug-22 10:54N 42°04' E 009°46'0 0.0 26.6
2015-Aug-22 10:06N 42°04' E 009°46'0 0.5 26.4
2015-Aug-22 09:11N 42°04' E 009°47'0 0.2 26.4
2015-Aug-22 07:08N 42°04' E 009°47'0 4.9 26.3
2015-Aug-22 07:02N 42°04' E 009°48'0 0.6 26.3
2015-Aug-22 06:13N 42°04' E 009°48'0 0.1 26.3
2015-Aug-22 03:59N 42°04' E 009°48'1 0.9
2015-Aug-22 02:52N 42°04' E 009°50'   26.1

Dump ship's entire track history